Time,TemperatureF,DewpointF,PressureIn,WindDirection,WindDirectionDegrees,WindSpeedMPH,WindSpeedGustMPH,Humidity,HourlyPrecipIn,Conditions,Clouds,dailyrainin,SolarRadiationWatts/m^2,SoftwareType,DateUTC
2013-04-29 00:02:00,52.0,26.0,-100.00,South,179,1.0,7.0,36,-99.99,,,0.00,0.000000,,2013-04-29 06:02:00,
2013-04-29 00:11:00,52.0,26.0,-100.00,South,179,1.0,7.0,36,-99.99,,,0.00,0.000000,,2013-04-29 06:11:00,
2013-04-29 00:42:00,51.0,25.0,-100.00,South,186,1.0,5.0,37,-99.99,,,0.00,0.000000,,2013-04-29 06:42:00,
2013-04-29 00:52:00,51.0,25.0,-100.00,South,186,1.0,5.0,37,-99.99,,,0.00,0.000000,,2013-04-29 06:52:00,
2013-04-29 01:01:00,51.0,25.0,-100.00,South,186,1.0,5.0,37,-99.99,,,0.00,0.000000,,2013-04-29 07:01:00,
2013-04-29 01:11:00,51.0,25.0,-100.00,South,186,1.0,5.0,37,-99.99,,,0.00,0.000000,,2013-04-29 07:11:00,
2013-04-29 01:41:00,50.0,24.0,-100.00,SSE,158,5.0,10.0,36,-99.99,,,0.00,0.000000,,2013-04-29 07:41:00,
2013-04-29 01:52:00,50.0,24.0,-100.00,SSE,158,5.0,10.0,36,-99.99,,,0.00,0.000000,,2013-04-29 07:52:00,
2013-04-29 02:02:00,50.0,24.0,-100.00,SSE,158,5.0,10.0,36,-99.99,,,0.00,0.000000,,2013-04-29 08:02:00,
2013-04-29 02:11:00,50.0,24.0,-100.00,SSE,158,5.0,10.0,36,-99.99,,,0.00,0.000000,,2013-04-29 08:11:00,
2013-04-29 02:42:00,50.0,23.0,-100.00,South,170,5.0,11.0,34,-99.99,,,0.00,0.000000,,2013-04-29 08:42:00,
2013-04-29 02:52:00,50.0,23.0,-100.00,South,170,5.0,11.0,34,-99.99,,,0.00,0.000000,,2013-04-29 08:52:00,
2013-04-29 03:01:00,50.0,23.0,-100.00,South,170,5.0,11.0,34,-99.99,,,0.00,0.000000,,2013-04-29 09:01:00,
2013-04-29 03:11:00,50.0,23.0,-100.00,South,170,5.0,11.0,34,-99.99,,,0.00,0.000000,,2013-04-29 09:11:00,
2013-04-29 03:42:00,52.0,25.0,-100.00,WSW,244,4.0,12.0,34,-99.99,,,0.00,0.000000,,2013-04-29 09:42:00,
2013-04-29 03:53:00,52.0,25.0,-100.00,WSW,244,4.0,12.0,34,-99.99,,,0.00,0.000000,,2013-04-29 09:53:00,
2013-04-29 04:02:00,52.0,25.0,-100.00,WSW,244,4.0,12.0,34,-99.99,,,0.00,0.000000,,2013-04-29 10:02:00,
2013-04-29 04:12:00,52.0,25.0,-100.00,WSW,244,4.0,12.0,34,-99.99,,,0.00,0.000000,,2013-04-29 10:12:00,
2013-04-29 04:42:00,49.0,28.0,-100.00,SSW,200,2.0,11.0,44,-99.99,,,0.00,0.000000,,2013-04-29 10:42:00,
2013-04-29 04:52:00,49.0,28.0,-100.00,SSW,200,2.0,11.0,44,-99.99,,,0.00,0.000000,,2013-04-29 10:52:00,
2013-04-29 05:02:00,49.0,28.0,-100.00,SSW,200,2.0,11.0,44,-99.99,,,0.00,0.000000,,2013-04-29 11:02:00,
2013-04-29 05:12:00,49.0,28.0,-100.00,SSW,200,2.0,11.0,44,-99.99,,,0.00,0.000000,,2013-04-29 11:12:00,
2013-04-29 05:41:00,47.0,32.0,-100.00,South,171,6.0,15.0,55,-99.99,,,0.00,0.000000,,2013-04-29 11:41:00,
2013-04-29 05:52:00,47.0,32.0,-100.00,South,171,6.0,15.0,55,-99.99,,,0.00,0.000000,,2013-04-29 11:52:00,
2013-04-29 06:01:00,47.0,32.0,-100.00,South,171,6.0,15.0,55,-99.99,,,0.00,0.000000,,2013-04-29 12:01:00,
2013-04-29 06:11:00,47.0,32.0,-100.00,South,171,6.0,15.0,55,-99.99,,,0.00,0.000000,,2013-04-29 12:11:00,
2013-04-29 07:42:00,45.0,35.0,-100.00,SSE,162,12.0,20.0,68,-99.99,,,0.00,27.660000,,2013-04-29 13:42:00,
2013-04-29 07:52:00,45.0,35.0,-100.00,SSE,162,12.0,20.0,68,-99.99,,,0.00,27.660000,,2013-04-29 13:52:00,
2013-04-29 08:01:00,45.0,35.0,-100.00,SSE,162,12.0,20.0,68,-99.99,,,0.00,27.660000,,2013-04-29 14:01:00,
2013-04-29 08:11:00,45.0,35.0,-100.00,SSE,162,12.0,20.0,68,-99.99,,,0.00,27.660000,,2013-04-29 14:11:00,
2013-04-29 08:42:00,46.0,35.0,-100.00,SSE,160,13.0,21.0,66,-99.99,,,0.00,130.979996,,2013-04-29 14:42:00,
2013-04-29 08:52:00,46.0,35.0,-100.00,SSE,160,13.0,21.0,66,-99.99,,,0.00,130.979996,,2013-04-29 14:52:00,
2013-04-29 09:01:00,46.0,35.0,-100.00,SSE,160,13.0,21.0,66,-99.99,,,0.00,130.979996,,2013-04-29 15:01:00,
2013-04-29 09:12:00,46.0,35.0,-100.00,SSE,160,13.0,21.0,66,-99.99,,,0.00,130.979996,,2013-04-29 15:12:00,
2013-04-29 09:42:00,49.0,36.0,-100.00,SSE,163,11.0,19.0,61,-99.99,,,0.00,248.710007,,2013-04-29 15:42:00,
2013-04-29 09:53:00,49.0,36.0,-100.00,SSE,163,11.0,19.0,61,-99.99,,,0.00,248.710007,,2013-04-29 15:53:00,
2013-04-29 10:02:00,49.0,36.0,-100.00,SSE,163,11.0,19.0,61,-99.99,,,0.00,248.710007,,2013-04-29 16:02:00,
2013-04-29 10:12:00,49.0,36.0,-100.00,SSE,163,11.0,19.0,61,-99.99,,,0.00,248.710007,,2013-04-29 16:12:00,
2013-04-29 10:42:00,44.0,38.0,-100.00,West,270,8.0,19.0,77,-99.99,,,0.00,180.490005,,2013-04-29 16:42:00,
2013-04-29 10:52:00,44.0,38.0,-100.00,West,270,8.0,19.0,77,-99.99,,,0.00,180.490005,,2013-04-29 16:52:00,
2013-04-29 11:02:00,44.0,38.0,-100.00,West,270,8.0,19.0,77,-99.99,,,0.00,180.490005,,2013-04-29 17:02:00,
2013-04-29 11:11:00,44.0,38.0,-100.00,West,270,8.0,19.0,77,-99.99,,,0.00,180.490005,,2013-04-29 17:11:00,
2013-04-29 11:42:00,44.0,40.0,-100.00,NW,310,5.0,13.0,85,-99.99,,,0.00,190.949997,,2013-04-29 17:42:00,
2013-04-29 11:52:00,44.0,40.0,-100.00,NW,310,5.0,13.0,85,-99.99,,,0.00,190.949997,,2013-04-29 17:52:00,
2013-04-29 12:01:00,44.0,40.0,-100.00,NW,310,5.0,13.0,85,-99.99,,,0.00,190.949997,,2013-04-29 18:01:00,
2013-04-29 12:12:00,44.0,40.0,-100.00,NW,310,5.0,13.0,85,-99.99,,,0.00,190.949997,,2013-04-29 18:12:00,
2013-04-29 12:42:00,46.0,39.0,-100.00,South,186,4.0,19.0,78,-99.99,,,0.00,774.950012,,2013-04-29 18:42:00,
2013-04-29 12:52:00,46.0,39.0,-100.00,South,186,4.0,19.0,78,-99.99,,,0.00,774.950012,,2013-04-29 18:52:00,
2013-04-29 13:01:00,46.0,39.0,-100.00,South,186,4.0,19.0,78,-99.99,,,0.00,774.950012,,2013-04-29 19:01:00,
2013-04-29 13:11:00,46.0,39.0,-100.00,South,186,4.0,19.0,78,-99.99,,,0.00,774.950012,,2013-04-29 19:11:00,
2013-04-29 14:42:00,50.0,31.0,-100.00,West,269,11.0,22.0,48,-99.99,,,0.00,327.279999,,2013-04-29 20:42:00,
2013-04-29 14:52:00,50.0,31.0,-100.00,West,269,11.0,22.0,48,-99.99,,,0.00,327.279999,,2013-04-29 20:52:00,
2013-04-29 15:01:00,50.0,31.0,-100.00,West,269,11.0,22.0,48,-99.99,,,0.00,327.279999,,2013-04-29 21:01:00,
2013-04-29 15:11:00,50.0,31.0,-100.00,West,269,11.0,22.0,48,-99.99,,,0.00,327.279999,,2013-04-29 21:11:00,
2013-04-29 16:42:00,49.0,28.0,-100.00,West,268,15.0,26.0,45,-99.99,,,0.01,724.979980,,2013-04-29 22:42:00,
2013-04-29 16:52:00,49.0,28.0,-100.00,West,268,15.0,26.0,45,-99.99,,,0.01,724.979980,,2013-04-29 22:52:00,
2013-04-29 17:02:00,49.0,28.0,-100.00,West,268,15.0,26.0,45,-99.99,,,0.01,724.979980,,2013-04-29 23:02:00,
2013-04-29 17:11:00,49.0,28.0,-100.00,West,268,15.0,26.0,45,-99.99,,,0.01,724.979980,,2013-04-29 23:11:00,
2013-04-29 17:42:00,45.0,30.0,-100.00,NNE,33,5.0,14.0,55,-99.99,,,0.01,484.170013,,2013-04-29 23:42:00,
2013-04-29 17:52:00,45.0,30.0,-100.00,NNE,33,5.0,14.0,55,-99.99,,,0.01,484.170013,,2013-04-29 23:52:00,
2013-04-29 18:01:00,45.0,30.0,-100.00,NNE,33,5.0,14.0,55,-99.99,,,0.01,484.170013,,2013-04-30 00:01:00,
2013-04-29 18:11:00,45.0,30.0,-100.00,NNE,33,5.0,14.0,55,-99.99,,,0.01,484.170013,,2013-04-30 00:11:00,